Time;durP1;ratioP1;P1;durP2;ratioP2;P2;SDS_P1;SDS_P2;PMS_P1;PMS_P2;Temp;Humidity;BMP_temperature;BMP_pressure;BME280_temperature;BME280_humidity;BME280_pressure;Samples;Min_cycle;Max_cycle;Signal;HPM_P1;HPM_P2
2023/08/01 00:01:04;;;;;;;4.60;2.80;;;;;;;16.05;80.45;98339.73;105517;1259;61479;-23
2023/08/01 00:03:32;;;;;;;3.70;1.80;;;;;;;15.77;83.57;98341.81;105248;1254;77744;-22
2023/08/01 00:06:00;;;;;;;2.70;1.90;;;;;;;16.15;84.32;98335.40;105415;1253;78432;-22
2023/08/01 00:08:28;;;;;;;4.10;2.00;;;;;;;16.60;82.63;98329.17;105561;1254;72732;-23
2023/08/01 00:10:55;;;;;;;3.10;2.20;;;;;;;16.68;82.37;98328.59;105410;1260;61142;-22
2023/08/01 00:13:23;;;;;;;3.10;2.40;;;;;;;16.54;82.76;98337.23;105630;1253;61476;-22
2023/08/01 00:15:51;;;;;;;4.00;2.60;;;;;;;16.37;82.49;98337.77;105714;1258;76271;-22
2023/08/01 00:18:33;;;;;;;2.40;1.70;;;;;;;16.23;82.42;98341.71;105644;1254;76854;-22
2023/08/01 00:21:02;;;;;;;2.80;1.80;;;;;;;16.72;82.35;98337.55;105642;1254;75252;-22
2023/08/01 00:23:30;;;;;;;3.70;2.40;;;;;;;17.20;79.86;98327.47;105502;1253;63914;-23
2023/08/01 00:25:58;;;;;;;6.70;2.50;;;;;;;17.19;78.70;98326.41;105575;1258;62523;-23
2023/08/01 00:28:26;;;;;;;7.00;2.80;;;;;;;16.94;78.87;98329.82;105615;1258;75324;-22
2023/08/01 00:31:08;;;;;;;3.70;2.60;;;;;;;16.62;79.04;98330.61;105662;1260;76810;-22
2023/08/01 00:33:36;;;;;;;3.50;2.30;;;;;;;16.20;80.39;98329.74;105500;1256;72714;-23
2023/08/01 00:36:09;;;;;;;4.00;1.90;;;;;;;15.93;80.96;98327.52;105592;1254;64222;-22
2023/08/01 00:38:37;;;;;;;4.00;2.00;;;;;;;16.35;81.63;98321.84;105595;1258;61142;-22
2023/08/01 00:41:05;;;;;;;3.40;2.40;;;;;;;16.79;79.83;98319.85;105502;1260;73890;-22
2023/08/01 00:43:33;;;;;;;9.50;4.10;;;;;;;16.74;79.82;98322.93;105636;1253;76836;-23
2023/08/01 00:46:02;;;;;;;4.90;3.70;;;;;;;16.52;80.02;98326.80;105612;1260;76224;-23
2023/08/01 00:48:30;;;;;;;6.20;4.00;;;;;;;16.28;80.08;98324.27;105579;1261;61188;-23
2023/08/01 00:50:59;;;;;;;22.50;9.50;;;;;;;16.05;80.82;98320.64;105749;1253;61179;-22
2023/08/01 00:53:27;;;;;;;11.40;5.40;;;;;;;15.87;81.94;98319.71;105585;1262;75649;-22
2023/08/01 00:55:54;;;;;;;4.80;3.20;;;;;;;16.33;81.77;98321.25;105674;1253;77544;-23
2023/08/01 00:58:23;;;;;;;4.00;2.60;;;;;;;16.81;79.93;98319.52;105686;1257;74102;-23
2023/08/01 01:00:51;;;;;;;5.00;2.10;;;;;;;16.80;79.16;98320.34;105692;1253;62873;-22
2023/08/01 01:03:19;;;;;;;7.10;2.50;;;;;;;16.57;79.11;98324.58;105657;1257;62621;-22
2023/08/01 01:05:52;;;;;;;3.20;2.40;;;;;;;16.23;79.97;98325.03;105651;1258;77720;-22
2023/08/01 01:08:20;;;;;;;7.20;2.50;;;;;;;15.87;80.45;98325.60;105592;1253;78400;-22
2023/08/01 01:10:48;;;;;;;2.00;1.50;;;;;;;15.62;81.81;98319.52;105651;1257;74549;-23
2023/08/01 01:13:16;;;;;;;3.50;1.50;;;;;;;16.01;82.03;98314.91;105649;1253;63931;-22
2023/08/01 01:15:44;;;;;;;3.20;1.90;;;;;;;16.49;80.66;98318.29;105604;1257;61180;-22
2023/08/01 01:18:11;;;;;;;2.60;1.90;;;;;;;16.54;79.60;98314.27;105675;1257;75262;-22
2023/08/01 01:20:39;;;;;;;3.90;1.80;;;;;;;16.37;79.50;98316.02;105684;1253;72379;-22
2023/08/01 01:23:07;;;;;;;5.10;2.40;;;;;;;16.07;79.60;98314.58;105667;1257;74154;-22
2023/08/01 01:25:35;;;;;;;2.60;2.30;;;;;;;15.75;79.68;98317.73;105559;1259;62787;-23
2023/08/01 01:28:04;;;;;;;4.60;1.80;;;;;;;15.46;81.30;98317.45;105390;1253;61070;-22
2023/08/01 01:30:33;;;;;;;2.40;1.40;;;;;;;15.78;81.58;98313.66;105378;1253;75439;-23
2023/08/01 01:33:01;;;;;;;2.50;1.90;;;;;;;16.17;78.83;98307.89;105602;1253;74459;-22
2023/08/01 01:35:29;;;;;;;2.70;2.10;;;;;;;16.06;78.13;98305.49;105557;1253;72764;-23
2023/08/01 01:37:58;;;;;;;3.10;2.20;;;;;;;15.76;79.56;98302.68;105622;1252;63909;-23
2023/08/01 01:40:26;;;;;;;3.10;2.60;;;;;;;15.47;80.54;98306.69;105533;1253;62792;-22
2023/08/01 01:42:54;;;;;;;7.30;2.70;;;;;;;15.19;81.90;98303.24;105586;1257;77694;-22
2023/08/01 01:45:22;;;;;;;2.10;1.50;;;;;;;14.99;83.19;98295.62;105641;1257;74520;-22
2023/08/01 01:47:49;;;;;;;1.60;1.50;;;;;;;15.45;83.57;98293.42;105665;1256;72714;-22
2023/08/01 01:50:18;;;;;;;6.60;1.70;;;;;;;15.97;81.52;98292.15;105651;1254;61074;-23
2023/08/01 01:52:46;;;;;;;6.00;1.80;;;;;;;15.99;80.17;98293.34;105727;1253;61045;-22
2023/08/01 01:55:14;;;;;;;2.30;1.90;;;;;;;15.74;79.99;98296.01;105563;1253;73865;-23
2023/08/01 01:57:42;;;;;;;2.70;2.30;;;;;;;15.46;80.87;98298.24;105402;1261;76448;-22
2023/08/01 02:00:11;;;;;;;5.30;2.50;;;;;;;15.23;81.60;98299.94;105636;1256;72736;-22
2023/08/01 02:02:41;;;;;;;4.20;1.70;;;;;;;15.09;82.04;98297.70;105527;1253;63098;-22
2023/08/01 02:05:09;;;;;;;1.70;1.40;;;;;;;15.57;82.01;98293.17;105634;1253;62487;-23
2023/08/01 02:07:37;;;;;;;1.90;1.70;;;;;;;16.05;80.18;98298.27;105656;1254;73925;-22
2023/08/01 02:10:05;;;;;;;4.40;2.40;;;;;;;15.97;79.85;98300.75;105533;1253;74251;-22
2023/08/01 02:12:35;;;;;;;3.00;2.00;;;;;;;15.67;80.34;98298.55;105589;1253;74180;-22
2023/08/01 02:15:05;;;;;;;5.30;2.90;;;;;;;15.32;81.41;98304.38;105612;1255;62865;-22
2023/08/01 02:17:33;;;;;;;2.90;2.40;;;;;;;15.00;82.90;98302.92;105332;1261;63840;-23
2023/08/01 02:20:01;;;;;;;2.00;1.70;;;;;;;14.77;83.39;98303.13;105883;1253;76279;-23
2023/08/01 02:22:30;;;;;;;5.10;2.10;;;;;;;15.21;83.71;98302.66;105706;1257;76788;-22
2023/08/01 02:24:58;;;;;;;4.70;2.20;;;;;;;15.71;82.19;98302.22;105562;1261;75168;-22
2023/08/01 02:27:26;;;;;;;4.00;2.20;;;;;;;15.75;81.04;98301.28;105514;1252;61489;-22
2023/08/01 02:29:53;;;;;;;3.20;2.00;;;;;;;15.55;80.89;98302.48;105665;1257;62521;-23
2023/08/01 02:32:21;;;;;;;7.00;2.30;;;;;;;15.31;81.22;98306.80;105670;1259;75106;-23
2023/08/01 02:34:51;;;;;;;2.70;2.40;;;;;;;15.07;82.03;98308.52;105694;1253;75784;-22
2023/08/01 02:37:19;;;;;;;3.00;1.30;;;;;;;14.92;82.51;98310.95;105643;1258;73669;-22
2023/08/01 02:39:47;;;;;;;3.20;1.90;;;;;;;15.36;82.18;98313.23;105610;1253;61774;-22
2023/08/01 02:42:14;;;;;;;2.80;1.60;;;;;;;15.85;80.84;98306.45;105561;1251;63757;-22
2023/08/01 02:44:42;;;;;;;3.10;2.10;;;;;;;15.89;80.73;98305.27;105677;1251;76011;-23
2023/08/01 02:47:10;;;;;;;2.40;1.90;;;;;;;15.71;80.43;98305.33;105606;1253;75748;-22
2023/08/01 02:49:38;;;;;;;2.60;2.30;;;;;;;15.46;80.18;98302.61;105627;1254;74833;-22
2023/08/01 02:52:06;;;;;;;2.80;2.10;;;;;;;15.14;80.72;98305.48;105821;1254;62541;-22
2023/08/01 02:54:34;;;;;;;2.60;1.60;;;;;;;14.84;82.25;98302.30;105927;1251;61165;-22
2023/08/01 02:57:03;;;;;;;2.90;1.70;;;;;;;15.24;82.31;98305.56;105689;1253;76334;-23
2023/08/01 02:59:32;;;;;;;2.60;2.00;;;;;;;15.76;81.56;98303.04;105758;1253;73199;-22
2023/08/01 03:02:01;;;;;;;3.00;1.90;;;;;;;15.84;80.42;98307.13;105742;1257;71437;-22
2023/08/01 03:04:29;;;;;;;2.60;1.90;;;;;;;15.68;80.81;98309.44;105921;1257;62537;-22
2023/08/01 03:07:13;;;;;;;6.10;2.00;;;;;;;15.59;80.52;98309.89;105688;1251;61591;-22
2023/08/01 03:09:42;;;;;;;3.30;1.60;;;;;;;15.64;80.85;98306.22;105680;1251;72435;-23
2023/08/01 03:12:10;;;;;;;2.10;1.60;;;;;;;16.24;79.67;98307.61;105648;1258;76562;-22
2023/08/01 03:14:38;;;;;;;2.30;2.00;;;;;;;16.96;77.25;98309.70;105557;1258;74490;-22
2023/08/01 03:17:08;;;;;;;4.20;1.80;;;;;;;17.16;76.08;98308.23;105735;1257;61593;-22
2023/08/01 03:19:36;;;;;;;3.50;1.90;;;;;;;17.10;75.32;98310.64;105742;1253;61456;-23
2023/08/01 03:22:04;;;;;;;6.00;2.30;;;;;;;16.86;75.35;98312.40;105651;1251;75504;-23
2023/08/01 03:24:32;;;;;;;2.40;2.20;;;;;;;16.64;75.48;98311.84;105668;1253;74506;-22
2023/08/01 03:27:01;;;;;;;3.00;1.30;;;;;;;16.48;76.71;98311.95;105685;1254;72735;-23
2023/08/01 03:29:28;;;;;;;3.80;1.60;;;;;;;17.06;76.45;98310.25;105701;1253;61140;-23
2023/08/01 03:31:56;;;;;;;2.90;2.30;;;;;;;17.74;74.07;98308.05;105695;1257;61180;-23
2023/08/01 03:34:26;;;;;;;2.10;1.70;;;;;;;18.07;73.49;98305.98;105649;1254;72937;-22
2023/08/01 03:36:54;;;;;;;5.80;2.40;;;;;;;18.14;72.02;98306.31;105552;1253;76820;-23
2023/08/01 03:39:22;;;;;;;6.40;2.20;;;;;;;18.02;71.89;98313.89;105837;1256;75190;-22
2023/08/01 03:41:50;;;;;;;2.80;2.00;;;;;;;17.76;72.21;98308.32;105628;1257;61159;-22
2023/08/01 03:44:20;;;;;;;2.70;2.30;;;;;;;17.68;73.19;98308.53;105723;1254;61619;-22
2023/08/01 03:46:47;;;;;;;3.20;1.70;;;;;;;17.73;73.46;98307.94;105653;1253;76285;-22
2023/08/01 03:49:15;;;;;;;2.00;1.70;;;;;;;18.40;72.92;98304.54;105686;1253;77142;-22
2023/08/01 03:51:43;;;;;;;3.00;2.10;;;;;;;19.16;70.79;98306.51;105597;1258;71432;-22
2023/08/01 03:54:11;;;;;;;2.50;1.90;;;;;;;19.44;69.38;98309.74;105710;1257;62857;-22
2023/08/01 03:56:43;;;;;;;3.20;2.60;;;;;;;19.39;69.61;98309.81;105683;1257;62633;-22
2023/08/01 03:59:12;;;;;;;4.60;2.80;;;;;;;19.24;70.32;98313.39;105871;1253;76307;-22
2023/08/01 04:01:40;;;;;;;3.70;2.80;;;;;;;19.03;71.20;98319.45;105724;1259;72916;-22
2023/08/01 04:04:08;;;;;;;3.60;2.70;;;;;;;18.83;72.95;98317.13;105603;1258;74684;-22
2023/08/01 04:06:37;;;;;;;3.30;1.80;;;;;;;18.69;73.92;98319.45;105740;1253;65554;-22
2023/08/01 04:09:06;;;;;;;3.10;2.00;;;;;;;19.25;73.41;98315.41;105543;1259;61822;-22
2023/08/01 04:11:34;;;;;;;3.20;2.10;;;;;;;19.90;71.90;98314.98;105690;1253;73904;-22
2023/08/01 04:14:02;;;;;;;7.00;4.70;;;;;;;20.07;70.36;98311.54;105682;1253;75709;-23
2023/08/01 04:16:30;;;;;;;5.30;2.90;;;;;;;20.05;70.20;98311.30;105663;1253;74324;-22
2023/08/01 04:18:58;;;;;;;2.70;2.50;;;;;;;20.04;70.56;98311.73;105664;1256;61390;-22
2023/08/01 04:21:25;;;;;;;3.10;2.60;;;;;;;20.11;70.72;98314.58;105570;1254;62750;-22
2023/08/01 04:23:53;;;;;;;4.00;2.80;;;;;;;20.24;70.32;98312.77;105570;1257;75266;-22
2023/08/01 04:26:21;;;;;;;3.70;2.50;;;;;;;20.40;70.11;98315.94;105603;1253;75758;-22
2023/08/01 04:28:49;;;;;;;2.60;2.10;;;;;;;20.63;69.80;98314.71;105587;1254;71490;-22
2023/08/01 04:31:17;;;;;;;12.70;2.70;;;;;;;21.40;69.37;98321.79;105481;1253;62497;-22
2023/08/01 04:33:45;;;;;;;4.80;2.00;;;;;;;22.18;67.04;98314.55;105585;1257;63869;-23
2023/08/01 04:36:13;;;;;;;3.70;2.80;;;;;;;22.49;64.50;98311.83;105488;1253;76359;-23
2023/08/01 04:38:41;;;;;;;11.30;3.30;;;;;;;22.63;64.93;98311.30;105600;1255;78444;-22
2023/08/01 04:41:09;;;;;;;5.80;2.70;;;;;;;22.73;64.55;98306.78;105774;1257;76656;-23
2023/08/01 04:43:36;;;;;;;4.00;2.80;;;;;;;22.86;64.72;98309.32;105658;1254;61160;-22
2023/08/01 04:46:04;;;;;;;4.90;3.00;;;;;;;22.96;64.50;98314.66;105658;1251;62742;-22
2023/08/01 04:48:32;;;;;;;5.20;3.10;;;;;;;23.07;64.17;98313.10;105690;1259;76588;-22
2023/08/01 04:51:00;;;;;;;9.10;4.30;;;;;;;23.11;63.41;98310.23;105682;1253;76753;-22
2023/08/01 04:53:28;;;;;;;10.40;5.00;;;;;;;23.12;63.23;98308.55;105637;1256;72708;-22
2023/08/01 04:55:56;;;;;;;20.00;7.20;;;;;;;23.20;63.75;98306.64;105640;1258;62787;-22
2023/08/01 04:58:23;;;;;;;16.00;7.40;;;;;;;23.32;63.63;98304.42;105580;1252;61509;-22
2023/08/01 05:08:30;;;;;;;18.30;10.00;;;;;;;23.70;63.16;98306.79;102643;1294;600310;-22
2023/08/01 05:10:58;;;;;;;20.60;14.00;;;;;;;23.76;63.22;98306.31;104796;1272;61196;-22
2023/08/01 05:13:26;;;;;;;14.40;11.00;;;;;;;23.85;62.53;98306.05;104886;1267;61200;-22
2023/08/01 05:15:54;;;;;;;11.30;7.70;;;;;;;23.87;62.55;98304.70;104879;1267;74631;-22
2023/08/01 05:18:21;;;;;;;12.00;8.30;;;;;;;23.99;62.38;98305.38;104875;1270;74404;-22
2023/08/01 05:20:49;;;;;;;8.90;6.50;;;;;;;24.15;61.38;98302.01;104857;1267;75476;-23
2023/08/01 05:23:17;;;;;;;7.60;6.10;;;;;;;24.09;60.06;98298.19;103038;1269;2615450;-22
2023/08/01 05:25:45;;;;;;;9.90;4.60;;;;;;;23.94;60.64;98293.81;105105;1264;61439;-22
2023/08/01 05:28:14;;;;;;;4.80;3.80;;;;;;;23.95;61.30;98298.41;105025;1269;73676;-22
2023/08/01 05:30:43;;;;;;;3.50;2.70;;;;;;;23.92;60.93;98297.27;104835;1269;78700;-22
2023/08/01 05:33:11;;;;;;;3.70;2.30;;;;;;;23.78;60.22;98299.29;104777;1269;75666;-22
2023/08/01 05:42:08;;;;;;;3.30;2.40;;;;;;;23.83;60.56;98302.89;102792;1296;600316;-22
2023/08/01 05:44:36;;;;;;;4.20;2.20;;;;;;;24.04;60.24;98301.39;104756;1273;61709;-22
2023/08/01 05:47:04;;;;;;;2.80;2.10;;;;;;;24.17;59.79;98299.92;104766;1269;62509;-21
2023/08/01 05:49:32;;;;;;;2.70;2.40;;;;;;;24.24;59.54;98299.29;104633;1264;70850;-22
2023/08/01 05:52:00;;;;;;;2.40;2.20;;;;;;;24.21;59.40;98296.24;104736;1264;78496;-22
2023/08/01 05:54:27;;;;;;;10.00;3.10;;;;;;;24.12;59.75;98294.98;104683;1267;72691;-22
2023/08/01 05:56:55;;;;;;;8.50;2.60;;;;;;;24.12;60.13;98294.09;103380;1260;61224;-22
2023/08/01 05:59:23;;;;;;;3.80;2.70;;;;;;;24.18;60.80;98293.56;105651;1254;61792;-21
2023/08/01 06:01:51;;;;;;;4.10;2.30;;;;;;;24.18;60.30;98290.27;105668;1260;61260;-22
2023/08/01 06:04:19;;;;;;;5.50;2.60;;;;;;;24.26;60.77;98289.48;105639;1260;78376;-22
2023/08/01 06:06:47;;;;;;;3.60;2.30;;;;;;;24.31;59.98;98289.36;105588;1254;75443;-23
2023/08/01 06:09:15;;;;;;;2.60;2.40;;;;;;;24.06;60.65;98292.80;105491;1262;62771;-23
2023/08/01 06:11:43;;;;;;;4.50;2.40;;;;;;;24.17;61.34;98291.05;105636;1260;62298;-23
2023/08/01 06:14:10;;;;;;;2.70;2.40;;;;;;;24.27;60.96;98290.77;105494;1254;74139;-23
2023/08/01 06:16:38;;;;;;;3.20;2.70;;;;;;;24.29;61.29;98289.64;105603;1254;77183;-23
2023/08/01 06:19:07;;;;;;;3.60;2.40;;;;;;;24.21;61.38;98289.30;105480;1261;76654;-23
2023/08/01 06:21:35;;;;;;;3.30;2.70;;;;;;;24.06;62.30;98288.45;105648;1260;64133;-23
2023/08/01 06:24:03;;;;;;;3.40;2.70;;;;;;;24.22;62.03;98286.91;105426;1254;61425;-23
2023/08/01 06:26:31;;;;;;;4.30;2.60;;;;;;;24.42;61.39;98287.84;105554;1263;75619;-22
2023/08/01 06:28:59;;;;;;;4.80;2.80;;;;;;;24.53;60.95;98289.29;105464;1254;75290;-22
2023/08/01 06:31:27;;;;;;;6.10;3.20;;;;;;;24.57;60.61;98291.40;105519;1259;76652;-22
2023/08/01 06:33:55;;;;;;;4.70;3.00;;;;;;;24.63;60.95;98288.71;105534;1258;63976;-22
2023/08/01 06:36:23;;;;;;;4.50;3.30;;;;;;;24.81;60.39;98290.98;105457;1257;62821;-23
2023/08/01 06:38:51;;;;;;;5.10;3.20;;;;;;;24.85;59.39;98288.98;105540;1257;75343;-22
2023/08/01 06:41:19;;;;;;;4.80;2.70;;;;;;;24.86;59.97;98290.92;105381;1263;73234;-22
2023/08/01 06:43:47;;;;;;;2.70;2.50;;;;;;;25.04;59.43;98289.77;105353;1263;74942;-23
2023/08/01 06:46:15;;;;;;;3.00;2.30;;;;;;;25.28;59.15;98289.55;105173;1258;63029;-22
2023/08/01 06:48:43;;;;;;;2.30;2.10;;;;;;;25.40;57.45;98287.77;105442;1261;62782;-22
2023/08/01 06:51:11;;;;;;;3.30;2.50;;;;;;;25.38;56.86;98285.49;105459;1262;75290;-22
2023/08/01 06:53:38;;;;;;;3.40;2.30;;;;;;;25.32;57.27;98284.13;105541;1257;74430;-22
2023/08/01 06:56:06;;;;;;;2.80;2.20;;;;;;;25.51;57.07;98284.04;105578;1261;72737;-22
2023/08/01 06:58:34;;;;;;;3.00;2.20;;;;;;;25.68;55.52;98282.92;105589;1258;61128;-22
2023/08/01 07:01:02;;;;;;;4.80;2.90;;;;;;;25.75;55.32;98277.84;105386;1257;61120;-22
2023/08/01 07:03:30;;;;;;;3.40;2.90;;;;;;;25.78;56.43;98275.78;105544;1257;74415;-23
2023/08/01 07:05:58;;;;;;;3.00;2.70;;;;;;;25.96;55.80;98276.94;105420;1264;77036;-22
2023/08/01 07:08:26;;;;;;;3.30;2.60;;;;;;;26.07;55.59;98274.69;105516;1263;75216;-22
2023/08/01 07:10:54;;;;;;;3.20;2.50;;;;;;;26.05;54.58;98275.27;105433;1258;63945;-22
2023/08/01 07:13:22;;;;;;;3.00;2.40;;;;;;;25.96;54.82;98276.20;105420;1258;61131;-22
2023/08/01 07:15:50;;;;;;;4.00;2.60;;;;;;;26.10;55.08;98270.58;105587;1257;74889;-23
2023/08/01 07:18:18;;;;;;;4.40;2.20;;;;;;;26.25;53.83;98269.94;105426;1263;76492;-23
2023/08/01 07:20:46;;;;;;;5.50;2.50;;;;;;;26.23;53.52;98271.25;105483;1264;72684;-22
2023/08/01 07:23:14;;;;;;;4.00;2.20;;;;;;;26.14;53.77;98270.59;105543;1257;61161;-23
2023/08/01 07:25:42;;;;;;;2.30;1.80;;;;;;;26.14;52.39;98268.62;105362;1257;61068;-25
2023/08/01 07:28:10;;;;;;;2.40;2.00;;;;;;;26.25;52.60;98270.04;105211;1263;75715;-22
2023/08/01 07:30:38;;;;;;;2.60;2.10;;;;;;;26.55;52.21;98271.85;105583;1261;76720;-22
2023/08/01 07:33:06;;;;;;;3.30;1.60;;;;;;;26.61;51.91;98272.66;105434;1261;75163;-21
2023/08/01 07:35:33;;;;;;;3.10;2.00;;;;;;;26.89;50.78;98272.79;105528;1258;61558;-24
2023/08/01 07:38:01;;;;;;;3.80;1.70;;;;;;;27.14;50.95;98275.75;105407;1257;61059;-22
2023/08/01 07:40:29;;;;;;;2.40;1.90;;;;;;;27.29;49.44;98272.85;105532;1263;74495;-22
2023/08/01 07:42:59;;;;;;;9.40;2.50;;;;;;;27.52;49.81;98269.64;105384;1257;77402;-22
2023/08/01 07:45:27;;;;;;;5.70;2.00;;;;;;;27.80;49.48;98270.38;105590;1258;75396;-22
2023/08/01 07:47:55;;;;;;;84.40;7.60;;;;;;;28.08;49.50;98271.00;105459;1262;61383;-22
2023/08/01 07:50:24;;;;;;;10.70;2.40;;;;;;;28.25;48.72;98269.50;105406;1256;61624;-23
2023/08/01 07:52:51;;;;;;;18.20;2.80;;;;;;;28.39;47.97;98271.54;105501;1263;73052;-22
2023/08/01 07:55:20;;;;;;;9.70;2.00;;;;;;;28.55;48.80;98274.00;105430;1257;73653;-22
2023/08/01 07:57:48;;;;;;;7.20;2.40;;;;;;;28.76;48.57;98271.77;105568;1258;72747;-21
2023/08/01 08:00:16;;;;;;;6.10;2.20;;;;;;;29.02;47.34;98268.00;105372;1257;61116;-23
2023/08/01 08:02:45;;;;;;;8.60;2.70;;;;;;;29.29;46.19;98266.41;105540;1263;61102;-22
2023/08/01 08:05:13;;;;;;;5.70;2.30;;;;;;;29.44;46.12;98264.79;105303;1258;73151;-22
2023/08/01 08:07:41;;;;;;;13.00;2.80;;;;;;;29.61;45.98;98265.68;105566;1257;65525;-24
2023/08/01 08:10:09;;;;;;;4.70;2.30;;;;;;;29.79;45.14;98266.15;105453;1263;66259;-24
2023/08/01 08:12:37;;;;;;;6.70;2.20;;;;;;;29.90;45.00;98269.03;105523;1258;61107;-22
2023/08/01 08:15:05;;;;;;;2.60;1.90;;;;;;;29.48;43.67;98271.73;105568;1258;61174;-22
2023/08/01 08:17:33;;;;;;;3.00;2.00;;;;;;;28.52;44.94;98270.51;105329;1257;73084;-22
2023/08/01 08:20:03;;;;;;;7.00;2.10;;;;;;;27.63;46.78;98271.54;105687;1254;76815;-22
2023/08/01 08:22:31;;;;;;;3.30;2.20;;;;;;;27.46;46.53;98270.34;105702;1260;72898;-22
2023/08/01 08:24:59;;;;;;;3.30;2.40;;;;;;;27.49;47.62;98271.07;105573;1254;61103;-23
2023/08/01 08:27:26;;;;;;;5.30;2.20;;;;;;;27.47;47.57;98273.60;105672;1259;61106;-22
2023/08/01 08:29:55;;;;;;;5.10;2.30;;;;;;;27.71;46.73;98269.74;105577;1257;74566;-23
2023/08/01 08:32:23;;;;;;;4.70;2.50;;;;;;;28.00;46.96;98271.41;105719;1259;76800;-24
2023/08/01 08:34:51;;;;;;;7.80;2.90;;;;;;;28.52;45.75;98261.35;105683;1256;76629;-23
2023/08/01 08:37:19;;;;;;;4.10;1.90;;;;;;;28.52;45.10;98268.81;105603;1254;61115;-24
2023/08/01 08:39:47;;;;;;;5.30;2.30;;;;;;;28.55;45.16;98262.43;105685;1254;61055;-23
2023/08/01 08:42:17;;;;;;;4.80;2.30;;;;;;;28.80;45.19;98258.36;105658;1258;73694;-23
2023/08/01 08:44:45;;;;;;;2.30;1.70;;;;;;;28.91;44.98;98259.35;105715;1254;75862;-23
2023/08/01 08:47:13;;;;;;;10.40;3.00;;;;;;;28.66;44.33;98265.85;105739;1254;75596;-23
2023/08/01 08:49:40;;;;;;;2.70;2.40;;;;;;;28.46;45.27;98261.45;105591;1252;61082;-24
2023/08/01 08:52:09;;;;;;;5.80;2.10;;;;;;;27.77;46.06;98263.56;105686;1254;61122;-22
2023/08/01 08:54:37;;;;;;;2.40;2.20;;;;;;;27.54;47.31;98263.80;105768;1259;74649;-22
2023/08/01 08:57:06;;;;;;;3.90;2.30;;;;;;;27.72;46.98;98262.41;105719;1254;76830;-22
2023/08/01 08:59:34;;;;;;;2.70;2.40;;;;;;;27.91;45.81;98255.85;105711;1259;71743;-22
2023/08/01 09:02:04;;;;;;;9.00;2.20;;;;;;;27.66;45.23;98256.70;105683;1260;61111;-22
2023/08/01 09:04:31;;;;;;;11.50;2.60;;;;;;;27.33;45.72;98258.31;105660;1253;62240;-22
2023/08/01 09:07:02;;;;;;;2.40;1.80;;;;;;;27.15;45.90;98261.50;105668;1260;73153;-23
2023/08/01 09:09:30;;;;;;;4.00;2.10;;;;;;;27.11;47.05;98261.27;105638;1259;77107;-23
2023/08/01 09:11:58;;;;;;;4.40;2.80;;;;;;;26.92;46.90;98260.38;105620;1257;72692;-23
2023/08/01 09:14:27;;;;;;;3.30;2.40;;;;;;;27.10;48.02;98254.77;105614;1254;61048;-23
2023/08/01 09:16:55;;;;;;;8.60;2.00;;;;;;;27.53;47.72;98250.61;105703;1252;62820;-22
2023/08/01 09:19:24;;;;;;;4.20;2.00;;;;;;;27.81;46.48;98254.45;105707;1254;76908;-22
2023/08/01 09:21:52;;;;;;;3.90;2.00;;;;;;;27.82;45.67;98251.25;105673;1254;74383;-22
2023/08/01 09:24:20;;;;;;;2.70;2.10;;;;;;;27.56;46.77;98247.27;105615;1254;71924;-23
2023/08/01 09:26:49;;;;;;;3.20;2.10;;;;;;;27.14;46.91;98248.13;105735;1254;61078;-22
2023/08/01 09:29:17;;;;;;;3.50;2.00;;;;;;;26.92;47.08;98242.64;105735;1254;61662;-22
2023/08/01 09:31:45;;;;;;;2.30;2.00;;;;;;;27.06;46.76;98239.42;105697;1259;74411;-22
2023/08/01 09:34:23;;;;;;;4.50;2.20;;;;;;;26.91;46.89;98235.95;105709;1254;77160;-22
2023/08/01 09:36:51;;;;;;;5.00;1.80;;;;;;;27.10;47.15;98233.05;105692;1254;71459;-22
2023/08/01 09:39:20;;;;;;;3.30;1.50;;;;;;;27.55;45.58;98227.73;105645;1254;61102;-22
2023/08/01 09:41:56;;;;;;;8.20;1.80;;;;;;;27.72;45.28;98228.02;105327;1254;61052;-22
2023/08/01 09:44:24;;;;;;;2.80;1.70;;;;;;;28.29;44.01;98223.21;105466;1259;75540;-22
2023/08/01 09:46:59;;;;;;;2.40;1.80;;;;;;;28.17;43.66;98220.05;105372;1260;74470;-23
2023/08/01 09:49:31;;;;;;;24.10;3.00;;;;;;;27.77;44.49;98226.36;105565;1256;75154;-24
2023/08/01 09:51:59;;;;;;;4.30;1.80;;;;;;;27.74;45.08;98218.46;105364;1254;63912;-23
2023/08/01 09:54:27;;;;;;;5.10;1.90;;;;;;;28.22;44.08;98219.52;105494;1254;61156;-23
2023/08/01 09:56:55;;;;;;;3.20;1.60;;;;;;;28.92;44.76;98216.73;105424;1258;75977;-23
2023/08/01 09:59:25;;;;;;;2.30;1.70;;;;;;;29.64;42.56;98208.92;105692;1259;77226;-23
2023/08/01 10:01:54;;;;;;;1.90;1.70;;;;;;;29.70;42.08;98211.70;105495;1259;75475;-23
2023/08/01 10:04:31;;;;;;;2.30;1.30;;;;;;;30.07;41.65;98209.10;105485;1257;61133;-23
2023/08/01 10:07:11;;;;;;;1.40;1.20;;;;;;;30.45;40.15;98203.73;105511;1254;61111;-23
2023/08/01 10:09:40;;;;;;;2.20;1.00;;;;;;;31.00;38.21;98201.85;105614;1260;67394;-25
2023/08/01 10:12:08;;;;;;;3.30;1.70;;;;;;;30.75;37.88;98202.77;105655;1254;67883;-25
2023/08/01 10:14:36;;;;;;;2.00;1.70;;;;;;;30.32;37.87;98205.98;105754;1257;74028;-22
2023/08/01 10:17:04;;;;;;;2.20;1.60;;;;;;;29.59;39.28;98211.17;105621;1254;62666;-26
2023/08/01 10:19:33;;;;;;;1.60;1.40;;;;;;;28.91;40.18;98210.73;105654;1255;61109;-24
2023/08/01 10:22:01;;;;;;;3.50;1.50;;;;;;;28.51;40.56;98210.33;105451;1259;75153;-25
2023/08/01 10:24:29;;;;;;;2.30;2.00;;;;;;;28.42;41.25;98212.17;105607;1254;77204;-23
2023/08/01 10:26:57;;;;;;;2.50;2.00;;;;;;;28.04;43.75;98210.86;105663;1259;75332;-26
2023/08/01 10:29:35;;;;;;;3.00;2.30;;;;;;;27.67;45.38;98210.13;105668;1254;60994;-25
2023/08/01 10:32:04;;;;;;;1.80;1.60;;;;;;;27.18;47.53;98204.73;105262;1254;61152;-23
2023/08/01 10:34:32;;;;;;;2.20;1.60;;;;;;;27.26;47.34;98198.70;105291;1254;73916;-23
2023/08/01 10:37:01;;;;;;;14.20;2.70;;;;;;;27.44;47.05;98196.13;105611;1259;75308;-23
2023/08/01 10:39:29;;;;;;;1.60;1.50;;;;;;;27.87;44.49;98186.34;105743;1252;74561;-23
2023/08/01 10:42:04;;;;;;;6.50;1.70;;;;;;;27.84;44.42;98188.77;105678;1254;62844;-23
2023/08/01 10:44:34;;;;;;;2.50;1.60;;;;;;;27.74;45.51;98188.78;105394;1259;61375;-21
2023/08/01 10:47:04;;;;;;;8.10;2.10;;;;;;;27.78;46.22;98186.73;105601;1254;73988;-22
2023/08/01 10:49:42;;;;;;;2.50;1.70;;;;;;;27.90;45.87;98178.27;105324;1260;77134;-21
2023/08/01 10:52:21;;;;;;;2.40;1.80;;;;;;;27.56;47.10;98181.35;105600;1254;75292;-22
2023/08/01 10:54:59;;;;;;;2.90;1.90;;;;;;;27.36;47.03;98183.55;105670;1254;61879;-23
2023/08/01 10:57:28;;;;;;;4.60;2.10;;;;;;;27.63;47.02;98182.83;105585;1258;61793;-25
2023/08/01 10:59:57;;;;;;;4.10;1.80;;;;;;;28.17;47.01;98179.90;105529;1254;76509;-23
2023/08/01 11:02:26;;;;;;;2.70;1.90;;;;;;;28.46;46.13;98170.15;105473;1254;74422;-23
2023/08/01 11:05:04;;;;;;;2.10;1.40;;;;;;;28.66;44.73;98167.40;105245;1257;75471;-26
2023/08/01 11:07:33;;;;;;;2.40;1.70;;;;;;;28.05;43.14;98167.75;105674;1259;62872;-25
2023/08/01 11:10:09;;;;;;;2.40;1.70;;;;;;;27.75;44.59;98169.70;105443;1254;61810;-25
2023/08/01 11:12:38;;;;;;;19.90;2.40;;;;;;;27.60;45.84;98166.95;105608;1252;72949;-25
2023/08/01 11:15:08;;;;;;;7.10;2.10;;;;;;;27.71;46.84;98165.66;105256;1254;77244;-24
2023/08/01 11:17:37;;;;;;;7.50;1.80;;;;;;;27.79;45.74;98164.86;105667;1258;74499;-27
2023/08/01 11:20:08;;;;;;;2.10;1.70;;;;;;;27.63;45.48;98164.06;105561;1254;62903;-25
2023/08/01 11:22:36;;;;;;;13.20;2.40;;;;;;;27.96;45.60;98166.53;105362;1260;61960;-24
2023/08/01 11:25:05;;;;;;;3.00;2.20;;;;;;;27.96;45.85;98161.92;105573;1254;74439;-25
2023/08/01 11:27:33;;;;;;;9.10;2.40;;;;;;;27.78;46.20;98159.34;105449;1259;77195;-24
2023/08/01 11:30:01;;;;;;;3.30;1.80;;;;;;;27.59;46.75;98156.45;105422;1262;71462;-23
2023/08/01 11:32:36;;;;;;;2.20;1.70;;;;;;;27.41;47.37;98155.30;105559;1259;61817;-25
2023/08/01 11:35:05;;;;;;;6.00;1.70;;;;;;;27.19;47.73;98153.02;105689;1254;61077;-25
2023/08/01 11:37:32;;;;;;;7.70;2.00;;;;;;;27.01;48.64;98151.59;105528;1254;75055;-24
2023/08/01 11:40:00;;;;;;;3.00;1.80;;;;;;;26.85;48.72;98148.11;105654;1254;74408;-23
2023/08/01 11:42:33;;;;;;;3.60;1.80;;;;;;;26.81;49.21;98147.78;105668;1254;75393;-22
2023/08/01 11:45:08;;;;;;;3.80;1.60;;;;;;;27.09;48.97;98146.64;105691;1259;61253;-23